Time;durP1;ratioP1;P1;durP2;ratioP2;P2;SDS_P1;SDS_P2;PMS_P1;PMS_P2;Temp;Humidity;BMP_temperature;BMP_pressure;BME280_temperature;BME280_humidity;BME280_pressure;Samples;Min_cycle;Max_cycle;Signal;HPM_P1;HPM_P2
2023/05/06 00:00:44;;;;;;;9.00;7.45;;;16.90;82.20;;;;;;5055569;28;20071;-63
2023/05/06 00:03:10;;;;;;;8.57;6.60;;;16.90;82.40;;;;;;5055392;28;20060;-62
2023/05/06 00:05:36;;;;;;;9.38;7.35;;;16.80;82.90;;;;;;5056529;28;20118;-63
2023/05/06 00:08:01;;;;;;;9.43;7.10;;;16.80;83.00;;;;;;5056083;28;20025;-61
2023/05/06 00:10:27;;;;;;;8.02;6.57;;;16.80;83.20;;;;;;5056232;28;20021;-61
2023/05/06 00:12:52;;;;;;;8.23;6.45;;;16.80;83.20;;;;;;5055301;28;20028;-63
2023/05/06 00:15:18;;;;;;;9.82;6.78;;;16.80;83.60;;;;;;5054919;28;20720;-63
2023/05/06 00:17:44;;;;;;;12.25;6.88;;;16.70;83.30;;;;;;5055275;28;20021;-63
2023/05/06 00:20:10;;;;;;;9.88;6.60;;;16.70;83.80;;;;;;5054835;28;20037;-62
2023/05/06 00:22:35;;;;;;;8.57;6.85;;;16.70;83.90;;;;;;5054579;28;20401;-63
2023/05/06 00:25:01;;;;;;;8.82;6.45;;;16.70;84.00;;;;;;5054620;28;20025;-63
2023/05/06 00:27:27;;;;;;;8.00;6.72;;;16.70;83.90;;;;;;5054796;28;20025;-63
2023/05/06 00:29:53;;;;;;;10.68;6.85;;;16.70;84.00;;;;;;5055041;28;20078;-63
2023/05/06 00:32:18;;;;;;;9.90;6.93;;;16.70;84.10;;;;;;5054660;28;20032;-63
2023/05/06 00:34:44;;;;;;;10.48;7.05;;;16.70;83.90;;;;;;5054282;28;20039;-63
2023/05/06 00:37:09;;;;;;;7.65;6.55;;;16.70;84.00;;;;;;5054071;28;20413;-63
2023/05/06 00:39:35;;;;;;;9.88;7.00;;;16.60;84.90;;;;;;5054819;28;20025;-63
2023/05/06 00:42:02;;;;;;;16.60;7.90;;;16.60;84.60;;;;;;5054734;28;20029;-63
2023/05/06 00:44:28;;;;;;;11.98;7.95;;;16.60;85.20;;;;;;5056233;28;20063;-63
2023/05/06 00:46:55;;;;;;;10.68;7.38;;;16.60;86.50;;;;;;5067124;28;20140;-63
2023/05/06 00:49:22;;;;;;;8.95;7.13;;;16.50;87.40;;;;;;5058747;28;20025;-63
2023/05/06 00:51:48;;;;;;;9.40;6.38;;;16.40;87.90;;;;;;5070871;28;20432;-63
2023/05/06 00:54:14;;;;;;;9.43;6.88;;;16.30;88.20;;;;;;5054099;28;20112;-63
2023/05/06 00:56:40;;;;;;;7.57;6.32;;;16.30;88.70;;;;;;5054480;28;20127;-63
2023/05/06 00:59:06;;;;;;;7.25;6.00;;;16.30;89.70;;;;;;5053801;28;20048;-62
2023/05/06 01:01:32;;;;;;;6.93;6.22;;;16.30;88.90;;;;;;5054992;28;20025;-62
2023/05/06 01:03:58;;;;;;;11.60;5.47;;;16.30;89.30;;;;;;5055394;28;20021;-62
2023/05/06 01:06:29;;;;;;;11.77;6.63;;;16.30;89.60;;;;;;5054544;28;20029;-62
2023/05/06 01:09:16;;;;;;;7.70;6.38;;;16.30;89.50;;;;;;5054346;28;20367;-62
2023/05/06 01:11:45;;;;;;;7.97;5.95;;;16.40;89.40;;;;;;5054249;28;20091;-62
2023/05/06 01:14:37;;;;;;;7.47;6.50;;;16.40;89.30;;;;;;5053374;28;20397;-62
2023/05/06 01:17:05;;;;;;;7.32;6.50;;;16.40;89.20;;;;;;5053790;28;20075;-62
2023/05/06 01:19:49;;;;;;;10.85;6.68;;;16.40;88.90;;;;;;5054315;28;20027;-62
2023/05/06 01:22:15;;;;;;;11.48;6.82;;;16.40;88.80;;;;;;5053632;28;20032;-62
2023/05/06 01:24:42;;;;;;;8.45;6.82;;;16.40;89.20;;;;;;5053837;28;20035;-62
2023/05/06 01:27:10;;;;;;;10.32;6.57;;;16.50;88.50;;;;;;5053270;28;20424;-63
2023/05/06 01:29:38;;;;;;;8.68;6.07;;;16.50;88.30;;;;;;5053893;28;20029;-62
2023/05/06 01:32:24;;;;;;;12.57;7.35;;;16.50;88.00;;;;;;5053403;28;20450;-62
2023/05/06 01:35:04;;;;;;;8.90;6.93;;;16.50;87.80;;;;;;5033697;28;20479;-62
2023/05/06 01:37:49;;;;;;;8.18;6.25;;;16.50;87.90;;;;;;5033268;28;20063;-62
2023/05/06 01:40:16;;;;;;;8.93;6.97;;;16.50;88.10;;;;;;5033069;28;20022;-62
2023/05/06 01:42:47;;;;;;;10.38;6.07;;;16.50;87.80;;;;;;5033452;28;20030;-62
2023/05/06 01:45:14;;;;;;;8.60;6.10;;;16.50;87.90;;;;;;5033083;28;20112;-62
2023/05/06 01:47:40;;;;;;;9.57;6.30;;;16.50;88.00;;;;;;5033902;28;20409;-63
2023/05/06 01:50:06;;;;;;;6.60;5.10;;;16.50;88.50;;;;;;5033322;28;20021;-63
2023/05/06 01:52:32;;;;;;;6.20;3.13;;;16.50;88.70;;;;;;5032895;28;20040;-63
2023/05/06 01:54:58;;;;;;;4.25;2.88;;;16.50;89.50;;;;;;5032975;28;20026;-62
2023/05/06 01:57:23;;;;;;;4.00;2.10;;;16.50;89.90;;;;;;5031403;28;20363;-63
2023/05/06 01:59:49;;;;;;;4.50;1.83;;;16.60;90.10;;;;;;5032687;28;20037;-62
2023/05/06 02:02:15;;;;;;;8.38;1.98;;;16.60;90.10;;;;;;5032581;28;20587;-63
2023/05/06 02:04:40;;;;;;;2.20;1.30;;;16.60;90.20;;;;;;5031728;28;20122;-63
2023/05/06 02:07:06;;;;;;;2.47;1.27;;;16.70;90.40;;;;;;5033061;28;20153;-63
2023/05/06 02:09:32;;;;;;;1.52;1.25;;;16.70;90.60;;;;;;5032432;28;20060;-63
2023/05/06 02:11:57;;;;;;;1.00;0.90;;;16.80;90.60;;;;;;5047052;28;20040;-63
2023/05/06 02:14:23;;;;;;;1.50;0.98;;;16.80;90.60;;;;;;5052548;28;20025;-63
2023/05/06 02:16:49;;;;;;;7.70;1.38;;;16.80;90.50;;;;;;5052755;28;20539;-63
2023/05/06 02:19:15;;;;;;;3.65;0.90;;;16.80;90.60;;;;;;5052137;28;20064;-63
2023/05/06 02:21:40;;;;;;;2.15;0.80;;;16.90;90.50;;;;;;5052704;28;20103;-63
2023/05/06 02:24:06;;;;;;;1.15;0.80;;;16.90;90.80;;;;;;5052440;28;20096;-63
2023/05/06 02:26:31;;;;;;;4.35;0.85;;;16.80;90.70;;;;;;5051986;28;20032;-63
2023/05/06 02:28:57;;;;;;;2.95;1.10;;;16.90;90.70;;;;;;5052590;28;20466;-63
2023/05/06 02:31:23;;;;;;;1.90;0.73;;;16.80;90.80;;;;;;5051830;28;20113;-63
2023/05/06 02:33:49;;;;;;;2.08;0.90;;;16.80;90.80;;;;;;5052386;28;20347;-63
2023/05/06 02:36:14;;;;;;;1.05;0.70;;;16.80;90.90;;;;;;5052431;28;20033;-63
2023/05/06 02:38:40;;;;;;;0.70;0.70;;;16.80;90.80;;;;;;5052513;28;20525;-63
2023/05/06 02:41:06;;;;;;;2.45;0.77;;;16.80;90.80;;;;;;5052402;28;20117;-63
2023/05/06 02:43:31;;;;;;;1.17;0.80;;;16.80;90.80;;;;;;5052169;28;20433;-63
2023/05/06 02:45:57;;;;;;;3.95;0.73;;;16.80;90.70;;;;;;5051744;28;20063;-63
2023/05/06 02:48:23;;;;;;;2.17;0.77;;;16.90;90.60;;;;;;5047787;28;20450;-63
2023/05/06 02:50:50;;;;;;;3.45;0.95;;;16.90;90.60;;;;;;5052034;28;20021;-63
2023/05/06 02:53:15;;;;;;;7.88;1.08;;;16.90;90.50;;;;;;5051911;28;20476;-63
2023/05/06 02:55:41;;;;;;;1.40;0.73;;;16.90;90.50;;;;;;5052078;28;20029;-63
2023/05/06 02:58:07;;;;;;;0.98;0.70;;;16.90;90.40;;;;;;5052111;28;20031;-63
2023/05/06 03:00:32;;;;;;;1.73;0.80;;;16.90;90.20;;;;;;5051943;28;20025;-63
2023/05/06 03:02:58;;;;;;;2.33;0.77;;;16.90;90.30;;;;;;5052212;28;20078;-64
2023/05/06 03:05:23;;;;;;;1.08;0.88;;;17.00;90.10;;;;;;5052817;28;20064;-63
2023/05/06 03:07:49;;;;;;;1.55;0.77;;;17.00;90.20;;;;;;5053048;28;20036;-63
2023/05/06 03:10:15;;;;;;;0.98;0.65;;;17.00;90.10;;;;;;5052455;28;20098;-67
2023/05/06 03:12:40;;;;;;;2.15;0.75;;;17.00;90.10;;;;;;5054887;28;20421;-64
2023/05/06 03:15:07;;;;;;;1.27;0.90;;;17.00;90.00;;;;;;5055954;28;20428;-63
2023/05/06 03:17:32;;;;;;;1.10;0.60;;;17.00;90.00;;;;;;5055762;28;20036;-63
2023/05/06 03:19:58;;;;;;;1.38;0.70;;;17.00;90.00;;;;;;5056998;28;20033;-63
2023/05/06 03:22:23;;;;;;;2.58;0.85;;;17.00;90.00;;;;;;5056550;28;20377;-63
2023/05/06 03:24:49;;;;;;;1.05;0.90;;;17.00;90.00;;;;;;5056390;28;20079;-63
2023/05/06 03:27:15;;;;;;;1.40;0.80;;;17.00;89.90;;;;;;5056208;28;20052;-63
2023/05/06 03:29:40;;;;;;;2.78;0.95;;;17.00;89.80;;;;;;5055948;28;20119;-63
2023/05/06 03:32:06;;;;;;;2.75;0.85;;;17.10;89.60;;;;;;5054424;28;20067;-63
2023/05/06 03:34:32;;;;;;;1.20;0.75;;;17.10;89.60;;;;;;5055643;28;20096;-63
2023/05/06 03:36:57;;;;;;;2.03;1.25;;;17.10;89.50;;;;;;5056039;28;20111;-63
2023/05/06 03:39:23;;;;;;;1.95;1.00;;;17.10;89.20;;;;;;5055882;28;20094;-63
2023/05/06 03:41:49;;;;;;;1.20;0.70;;;17.10;89.20;;;;;;5056348;28;20032;-63
2023/05/06 03:44:15;;;;;;;1.38;0.95;;;17.10;89.50;;;;;;5055627;28;20060;-63
2023/05/06 03:46:40;;;;;;;1.95;0.65;;;17.10;89.30;;;;;;5055292;28;20094;-63
2023/05/06 03:49:06;;;;;;;1.00;0.70;;;17.10;89.10;;;;;;5055787;28;20453;-63
2023/05/06 03:51:33;;;;;;;1.58;0.80;;;17.10;89.00;;;;;;5055344;28;20037;-63
2023/05/06 03:53:59;;;;;;;0.88;0.80;;;17.10;89.20;;;;;;5055759;28;20033;-63
2023/05/06 03:56:24;;;;;;;2.40;0.90;;;17.10;89.90;;;;;;5055030;28;20371;-63
2023/05/06 03:58:50;;;;;;;0.75;0.73;;;17.10;89.60;;;;;;5055588;28;20025;-63
2023/05/06 04:01:17;;;;;;;1.30;0.90;;;17.10;90.10;;;;;;5055566;28;20036;-63
2023/05/06 04:03:43;;;;;;;1.52;0.75;;;17.10;90.20;;;;;;5054991;28;20090;-63
2023/05/06 04:06:09;;;;;;;3.33;0.73;;;17.00;90.50;;;;;;5055384;28;20068;-63
2023/05/06 04:08:34;;;;;;;1.33;0.73;;;17.00;90.60;;;;;;5055082;28;20056;-63
2023/05/06 04:11:04;;;;;;;1.00;0.93;;;17.00;91.10;;;;;;5055317;28;20032;-63
2023/05/06 04:13:30;;;;;;;2.40;0.90;;;17.00;91.40;;;;;;5054838;28;20032;-63
2023/05/06 04:15:56;;;;;;;1.23;0.70;;;17.00;91.70;;;;;;5055304;28;20025;-63
2023/05/06 04:18:21;;;;;;;0.80;0.70;;;17.00;91.90;;;;;;5054489;28;20021;-63
2023/05/06 04:20:47;;;;;;;2.80;0.90;;;17.00;92.00;;;;;;5054958;28;20025;-63
2023/05/06 04:23:13;;;;;;;1.30;0.60;;;17.00;92.10;;;;;;5054434;28;20021;-63
2023/05/06 04:25:41;;;;;;;1.30;0.60;;;16.90;91.80;;;;;;5054368;28;20411;-63
2023/05/06 04:28:08;;;;;;;1.98;0.90;;;16.90;91.80;;;;;;5054648;28;20480;-63
2023/05/06 04:30:34;;;;;;;0.80;0.70;;;17.00;91.80;;;;;;5054396;28;20470;-63
2023/05/06 04:33:01;;;;;;;1.13;0.70;;;17.00;91.70;;;;;;5054884;28;20151;-63
2023/05/06 04:35:27;;;;;;;0.88;0.80;;;16.90;91.50;;;;;;5054373;28;20107;-63
2023/05/06 04:37:52;;;;;;;1.60;0.90;;;16.90;91.60;;;;;;5053205;28;20171;-63
2023/05/06 04:40:18;;;;;;;2.08;0.70;;;16.90;91.50;;;;;;5054829;28;20021;-63
2023/05/06 04:42:43;;;;;;;2.55;1.13;;;16.90;91.40;;;;;;5054306;28;20036;-63
2023/05/06 04:45:10;;;;;;;0.90;0.60;;;16.90;91.50;;;;;;5054242;28;20052;-63
2023/05/06 04:47:36;;;;;;;1.75;0.82;;;17.00;91.50;;;;;;5054269;28;20079;-64
2023/05/06 04:50:03;;;;;;;1.75;0.65;;;17.00;91.70;;;;;;5054677;28;20029;-63
2023/05/06 04:52:29;;;;;;;1.30;0.80;;;17.00;91.80;;;;;;5053955;28;20480;-62
2023/05/06 04:54:54;;;;;;;1.80;0.95;;;17.00;91.70;;;;;;5054556;28;20032;-63
2023/05/06 04:57:20;;;;;;;1.23;0.88;;;17.00;91.90;;;;;;5054941;28;20550;-63
2023/05/06 04:59:45;;;;;;;3.08;0.70;;;17.00;92.20;;;;;;5054474;28;20027;-62
2023/05/06 05:02:11;;;;;;;0.98;0.88;;;17.00;92.40;;;;;;5054207;28;20086;-64
2023/05/06 05:04:37;;;;;;;1.00;0.77;;;17.10;92.40;;;;;;5053890;28;20439;-64
2023/05/06 05:07:02;;;;;;;1.65;0.73;;;17.10;92.10;;;;;;5053253;28;20021;-63
2023/05/06 05:09:28;;;;;;;2.13;1.08;;;17.10;91.90;;;;;;5053529;28;20021;-63
2023/05/06 05:11:54;;;;;;;1.98;1.10;;;17.10;91.90;;;;;;5053835;28;20033;-63
2023/05/06 05:14:20;;;;;;;2.15;1.00;;;17.10;92.10;;;;;;5053884;28;20029;-63
2023/05/06 05:16:46;;;;;;;1.85;1.27;;;17.10;92.20;;;;;;5053734;28;20481;-63
2023/05/06 05:19:12;;;;;;;3.08;1.83;;;17.10;92.60;;;;;;5054055;28;20107;-63
2023/05/06 05:21:37;;;;;;;3.17;2.45;;;17.10;92.30;;;;;;5053641;28;20028;-63
2023/05/06 05:24:03;;;;;;;4.18;2.92;;;17.10;92.20;;;;;;5053650;28;20033;-63
2023/05/06 05:26:29;;;;;;;5.28;3.60;;;17.10;92.30;;;;;;5053479;28;20094;-63
2023/05/06 05:28:55;;;;;;;6.85;3.75;;;17.10;92.10;;;;;;5054171;28;20491;-63
2023/05/06 05:31:20;;;;;;;5.55;3.38;;;17.10;92.10;;;;;;5053298;28;20021;-63
2023/05/06 05:33:46;;;;;;;5.53;3.97;;;17.10;92.20;;;;;;5052655;28;20100;-63
2023/05/06 05:36:14;;;;;;;5.43;3.97;;;17.10;92.20;;;;;;5053772;28;20029;-63
2023/05/06 05:38:40;;;;;;;9.40;4.97;;;17.10;92.00;;;;;;5053352;28;20103;-63
2023/05/06 05:41:05;;;;;;;8.82;4.97;;;17.00;92.20;;;;;;5053671;28;20480;-63
2023/05/06 05:43:31;;;;;;;7.25;4.70;;;17.10;92.20;;;;;;5053244;28;20025;-62
2023/05/06 05:45:57;;;;;;;6.60;4.45;;;17.10;92.40;;;;;;5053425;28;20049;-63
2023/05/06 05:48:22;;;;;;;9.90;6.57;;;17.10;92.80;;;;;;5053457;28;20021;-63
2023/05/06 05:50:48;;;;;;;4.95;4.40;;;17.10;92.70;;;;;;5053085;28;20424;-63
2023/05/06 05:53:14;;;;;;;6.28;5.00;;;17.10;92.40;;;;;;5053934;28;20107;-64
2023/05/06 05:55:40;;;;;;;6.95;4.93;;;17.10;92.50;;;;;;5053186;28;20373;-63
2023/05/06 05:58:05;;;;;;;7.88;4.95;;;17.10;92.70;;;;;;5053729;28;20100;-63
2023/05/06 06:00:31;;;;;;;5.88;4.80;;;17.10;92.90;;;;;;5052895;28;20052;-64
2023/05/06 06:02:57;;;;;;;6.68;5.28;;;17.10;93.20;;;;;;5052956;28;20112;-63
2023/05/06 06:05:22;;;;;;;7.00;5.30;;;17.00;93.20;;;;;;5052766;28;20031;-64
2023/05/06 06:07:49;;;;;;;7.03;5.22;;;17.00;93.50;;;;;;5053047;28;20074;-63
2023/05/06 06:10:14;;;;;;;7.38;5.13;;;17.00;94.20;;;;;;5053210;28;20017;-63
2023/05/06 06:12:40;;;;;;;6.13;5.18;;;17.00;94.50;;;;;;5052659;28;20021;-64
2023/05/06 06:15:06;;;;;;;6.85;5.10;;;17.00;94.40;;;;;;5053056;28;20029;-63
2023/05/06 06:17:32;;;;;;;9.20;5.30;;;17.10;94.60;;;;;;5052274;28;20032;-63
2023/05/06 06:19:58;;;;;;;6.10;5.47;;;17.10;94.70;;;;;;5052664;28;20100;-62
2023/05/06 06:22:25;;;;;;;5.65;4.65;;;17.10;95.20;;;;;;5052614;28;20029;-62
2023/05/06 06:24:52;;;;;;;5.53;4.65;;;17.20;95.30;;;;;;5052105;28;20102;-63
2023/05/06 06:27:18;;;;;;;5.13;4.63;;;17.30;95.20;;;;;;5052378;28;20032;-62
2023/05/06 06:29:47;;;;;;;5.10;4.15;;;17.40;94.70;;;;;;5051781;28;20521;-62
2023/05/06 06:32:13;;;;;;;7.07;4.20;;;17.40;94.40;;;;;;5052564;28;20025;-63
2023/05/06 06:34:38;;;;;;;4.43;3.75;;;17.60;94.50;;;;;;5050752;28;20465;-62
2023/05/06 06:37:04;;;;;;;10.05;4.10;;;17.60;93.50;;;;;;5052382;28;20033;-63
2023/05/06 06:39:29;;;;;;;5.75;3.83;;;17.70;92.80;;;;;;5052037;28;20116;-62
2023/05/06 06:41:57;;;;;;;8.93;3.78;;;17.80;92.50;;;;;;5051810;28;20025;-63
2023/05/06 06:44:22;;;;;;;4.55;3.30;;;17.90;92.50;;;;;;5052241;28;20473;-63
2023/05/06 06:46:48;;;;;;;6.43;3.47;;;18.00;92.60;;;;;;5051593;28;20037;-62
2023/05/06 06:49:14;;;;;;;5.97;3.75;;;18.10;92.60;;;;;;5052385;28;20135;-62
2023/05/06 06:51:40;;;;;;;4.93;3.25;;;18.20;92.00;;;;;;5051455;28;20390;-61
2023/05/06 06:54:05;;;;;;;3.60;2.83;;;18.20;92.00;;;;;;5052305;28;20021;-62
2023/05/06 06:56:31;;;;;;;4.40;3.15;;;18.30;91.60;;;;;;5051611;28;20036;-63
2023/05/06 06:58:57;;;;;;;4.22;3.22;;;18.30;90.80;;;;;;5051667;28;20025;-63
2023/05/06 07:01:22;;;;;;;5.10;3.00;;;18.40;90.90;;;;;;5051959;28;20068;-63
2023/05/06 07:03:48;;;;;;;4.47;3.30;;;18.60;91.20;;;;;;5051386;28;20036;-63
2023/05/06 07:06:14;;;;;;;5.07;3.38;;;18.80;90.40;;;;;;5051937;28;20056;-62
2023/05/06 07:08:39;;;;;;;3.35;3.05;;;18.90;90.60;;;;;;5051633;28;20045;-62
2023/05/06 07:11:05;;;;;;;4.32;3.00;;;19.10;90.00;;;;;;5052219;28;20422;-62
2023/05/06 07:13:31;;;;;;;8.75;3.80;;;19.30;89.80;;;;;;5051540;28;20029;-62
2023/05/06 07:15:57;;;;;;;5.45;3.35;;;19.50;89.70;;;;;;5051345;28;20080;-63
2023/05/06 07:18:23;;;;;;;4.68;2.40;;;20.10;90.40;;;;;;5051860;28;20116;-62
2023/05/06 07:20:49;;;;;;;2.75;2.20;;;20.80;84.50;;;;;;5051903;28;20403;-62
2023/05/06 07:23:14;;;;;;;4.38;2.22;;;21.00;82.00;;;;;;5051745;28;20108;-63
2023/05/06 07:25:40;;;;;;;4.47;2.00;;;21.80;79.20;;;;;;5051738;28;20064;-62
2023/05/06 07:28:06;;;;;;;2.53;1.42;;;22.60;75.20;;;;;;5051923;28;20432;-63
2023/05/06 07:30:32;;;;;;;3.63;1.55;;;23.10;74.40;;;;;;5051934;28;20029;-64
2023/05/06 07:32:57;;;;;;;2.78;1.42;;;23.10;68.70;;;;;;5051834;28;20126;-62
2023/05/06 07:35:23;;;;;;;4.78;1.50;;;23.70;68.90;;;;;;5051874;28;20028;-62
2023/05/06 07:37:49;;;;;;;1.83;1.10;;;24.00;64.90;;;;;;5051392;28;20104;-63
2023/05/06 07:40:14;;;;;;;2.50;1.02;;;24.60;64.40;;;;;;5051602;28;20021;-62
2023/05/06 07:42:40;;;;;;;1.70;1.15;;;25.40;62.20;;;;;;5051605;28;20075;-63
2023/05/06 07:45:06;;;;;;;1.10;1.00;;;26.30;58.70;;;;;;5051869;28;20065;-62
2023/05/06 07:47:32;;;;;;;1.85;1.17;;;26.80;58.20;;;;;;5050565;28;20465;-63
2023/05/06 07:49:58;;;;;;;1.70;1.00;;;27.20;54.70;;;;;;5051390;28;20037;-63
2023/05/06 07:52:24;;;;;;;1.77;1.10;;;27.10;54.20;;;;;;5035579;28;20702;-63
2023/05/06 07:54:50;;;;;;;4.28;1.30;;;26.70;54.80;;;;;;5049949;28;20056;-63
2023/05/06 07:57:16;;;;;;;3.13;1.20;;;27.00;55.20;;;;;;5048856;28;20462;-66
2023/05/06 07:59:43;;;;;;;2.10;1.00;;;27.10;54.00;;;;;;5052069;28;20083;-65
2023/05/06 08:02:09;;;;;;;4.25;1.67;;;27.50;54.90;;;;;;5044275;28;20071;-64
2023/05/06 08:04:35;;;;;;;4.95;1.40;;;27.40;53.50;;;;;;5048643;28;20048;-64
2023/05/06 08:07:00;;;;;;;5.72;1.80;;;27.30;53.30;;;;;;5051488;28;20099;-64
2023/05/06 08:09:26;;;;;;;2.78;1.77;;;27.10;54.30;;;;;;5052597;28;20470;-64
2023/05/06 08:11:52;;;;;;;3.08;1.40;;;27.10;54.80;;;;;;5052385;28;20028;-65
2023/05/06 08:14:18;;;;;;;6.00;1.63;;;26.30;54.50;;;;;;5053033;28;20406;-66
2023/05/06 08:16:44;;;;;;;2.95;1.20;;;25.70;56.30;;;;;;5053849;28;20063;-64
2023/05/06 08:19:09;;;;;;;2.08;1.33;;;25.90;58.10;;;;;;5053159;28;20036;-64
2023/05/06 08:21:35;;;;;;;2.53;1.40;;;26.30;56.40;;;;;;5053267;28;20037;-64
2023/05/06 08:24:01;;;;;;;4.05;1.40;;;26.30;54.90;;;;;;5051326;28;20025;-64
2023/05/06 08:26:26;;;;;;;4.65;1.50;;;25.60;55.90;;;;;;5054061;28;20449;-64
2023/05/06 08:28:55;;;;;;;3.25;1.23;;;25.30;56.50;;;;;;5051228;28;20473;-64
2023/05/06 08:31:20;;;;;;;3.92;1.20;;;25.20;57.90;;;;;;5052755;28;20028;-64
2023/05/06 08:33:46;;;;;;;1.63;1.20;;;24.70;58.70;;;;;;5049302;28;20161;-66
2023/05/06 08:36:11;;;;;;;3.33;1.48;;;24.30;59.90;;;;;;5051221;28;20029;-64
2023/05/06 08:38:37;;;;;;;6.03;1.38;;;24.10;60.40;;;;;;5050777;28;20017;-65
2023/05/06 08:41:08;;;;;;;2.38;1.40;;;23.70;61.70;;;;;;5053347;28;20420;-67
2023/05/06 08:43:40;;;;;;;3.95;1.60;;;23.60;61.80;;;;;;5050734;28;20025;-65
2023/05/06 08:46:06;;;;;;;4.28;1.45;;;23.30;62.50;;;;;;5051729;28;20036;-65
2023/05/06 08:48:32;;;;;;;2.17;1.63;;;23.00;63.70;;;;;;5052058;28;20324;-63
2023/05/06 08:51:02;;;;;;;2.58;1.30;;;22.80;64.30;;;;;;5051663;28;20699;-65
2023/05/06 08:53:29;;;;;;;1.90;1.10;;;22.60;65.00;;;;;;5051527;28;20025;-65
2023/05/06 08:55:56;;;;;;;3.63;1.52;;;22.40;66.40;;;;;;5052700;28;20037;-67
2023/05/06 08:58:24;;;;;;;2.33;1.48;;;22.30;67.30;;;;;;5051454;28;20029;-63
2023/05/06 09:00:50;;;;;;;1.95;1.20;;;22.40;67.50;;;;;;5050617;28;20037;-64
2023/05/06 09:03:16;;;;;;;2.85;1.30;;;22.30;66.70;;;;;;5049898;28;20032;-65
2023/05/06 09:05:41;;;;;;;3.53;1.38;;;22.20;67.10;;;;;;5052081;28;20037;-64
2023/05/06 09:08:07;;;;;;;3.80;1.17;;;22.30;67.60;;;;;;5051237;28;20029;-64
2023/05/06 09:10:46;;;;;;;2.70;1.23;;;22.20;67.30;;;;;;5050042;28;20036;-66
2023/05/06 09:13:13;;;;;;;2.13;1.30;;;22.10;67.00;;;;;;5050818;28;20029;-64
2023/05/06 09:15:43;;;;;;;5.50;1.67;;;22.00;66.90;;;;;;5051277;28;20028;-63
2023/05/06 09:18:10;;;;;;;1.50;1.10;;;21.80;66.70;;;;;;5050321;28;20426;-64
2023/05/06 09:20:41;;;;;;;1.50;1.27;;;21.60;67.60;;;;;;5051989;28;20599;-67
2023/05/06 09:23:08;;;;;;;2.75;1.85;;;21.50;67.60;;;;;;5047611;28;20025;-63
2023/05/06 09:25:35;;;;;;;2.88;1.00;;;21.40;69.10;;;;;;5051788;28;20098;-63
2023/05/06 09:28:05;;;;;;;4.22;1.30;;;21.50;69.30;;;;;;5048741;28;20790;-62
2023/05/06 09:30:31;;;;;;;3.58;1.27;;;21.50;68.80;;;;;;5048641;28;20477;-64
2023/05/06 09:32:56;;;;;;;2.70;1.30;;;21.50;68.70;;;;;;5050086;28;20082;-63
2023/05/06 09:35:28;;;;;;;2.50;1.20;;;21.70;69.80;;;;;;5050168;28;20401;-63
2023/05/06 09:37:55;;;;;;;1.40;1.30;;;21.70;67.70;;;;;;5050185;28;20024;-64
2023/05/06 09:40:23;;;;;;;3.00;1.48;;;21.80;68.00;;;;;;5048394;28;20079;-64
2023/05/06 09:42:50;;;;;;;1.23;1.10;;;21.80;67.90;;;;;;5047180;28;20029;-64
2023/05/06 09:45:19;;;;;;;1.77;1.23;;;21.80;66.80;;;;;;5046500;28;20068;-66
2023/05/06 09:47:46;;;;;;;1.83;1.20;;;21.80;67.10;;;;;;5049634;28;20096;-63
2023/05/06 09:50:13;;;;;;;2.08;1.10;;;21.80;67.20;;;;;;5049587;28;20043;-63
2023/05/06 09:52:38;;;;;;;2.00;1.35;;;21.80;67.10;;;;;;5050583;28;20017;-64
2023/05/06 09:55:05;;;;;;;1.70;1.08;;;21.70;67.70;;;;;;5048730;28;20086;-62
2023/05/06 09:57:32;;;;;;;2.58;1.45;;;21.70;68.40;;;;;;5047884;28;20103;-63
2023/05/06 09:59:59;;;;;;;3.00;1.30;;;21.70;67.70;;;;;;5049314;28;20108;-64
2023/05/06 10:02:26;;;;;;;4.47;1.23;;;21.60;67.80;;;;;;5049607;28;20040;-64
2023/05/06 10:04:54;;;;;;;1.33;1.17;;;21.60;67.50;;;;;;5050004;28;20044;-63
2023/05/06 10:07:24;;;;;;;1.95;1.27;;;21.50;67.70;;;;;;5047650;28;20366;-65
2023/05/06 10:09:51;;;;;;;2.40;1.20;;;21.40;68.40;;;;;;5047412;28;20033;-66
2023/05/06 10:12:18;;;;;;;1.80;1.40;;;21.50;69.00;;;;;;5049271;28;20107;-65
2023/05/06 10:14:44;;;;;;;3.47;1.20;;;21.50;67.30;;;;;;5050399;28;20109;-70
2023/05/06 10:17:12;;;;;;;1.40;1.00;;;21.60;67.90;;;;;;5049282;28;20108;-66
2023/05/06 10:19:45;;;;;;;1.50;1.20;;;21.70;68.00;;;;;;5049366;28;20041;-65
2023/05/06 10:22:21;;;;;;;1.67;1.08;;;21.80;66.90;;;;;;5048747;28;20028;-65
2023/05/06 10:25:15;;;;;;;2.13;1.40;;;21.90;66.60;;;;;;5047012;28;20021;-66
2023/05/06 10:27:43;;;;;;;1.88;1.27;;;22.00;66.60;;;;;;5047060;28;20028;-67
2023/05/06 10:30:10;;;;;;;2.25;1.00;;;21.90;66.30;;;;;;5048841;28;20033;-67
2023/05/06 10:32:40;;;;;;;3.67;1.05;;;21.90;66.00;;;;;;5049060;28;20182;-65
2023/05/06 10:35:18;;;;;;;1.75;1.30;;;22.00;66.60;;;;;;5049664;28;20106;-62
2023/05/06 10:37:47;;;;;;;1.92;1.15;;;22.00;65.10;;;;;;5048576;28;20117;-68
2023/05/06 10:40:13;;;;;;;3.03;1.20;;;22.00;65.00;;;;;;5047741;28;20462;-66
2023/05/06 10:42:39;;;;;;;2.28;1.02;;;22.10;66.40;;;;;;5048489;28;20017;-66
2023/05/06 10:45:07;;;;;;;1.55;1.30;;;22.00;64.70;;;;;;5040974;28;20828;-66
2023/05/06 10:47:54;;;;;;;2.72;1.33;;;22.10;66.20;;;;;;5049769;28;20033;-70
2023/05/06 10:50:24;;;;;;;1.55;1.23;;;22.10;66.50;;;;;;5048699;28;20020;-66
2023/05/06 10:52:52;;;;;;;1.75;1.38;;;22.20;65.80;;;;;;5048903;28;20104;-67
2023/05/06 10:55:43;;;;;;;1.80;1.40;;;22.30;65.20;;;;;;5049349;28;20037;-67
2023/05/06 10:58:13;;;;;;;2.65;1.10;;;22.40;67.40;;;;;;5046930;28;20480;-67
2023/05/06 11:00:40;;;;;;;1.15;1.00;;;22.50;66.80;;;;;;5050399;28;20021;-67
2023/05/06 11:03:12;;;;;;;2.05;1.55;;;22.70;66.60;;;;;;5050054;28;20116;-67
2023/05/06 11:05:56;;;;;;;3.33;1.50;;;22.80;66.70;;;;;;5048436;28;20029;-67
2023/05/06 11:08:26;;;;;;;1.27;0.90;;;22.80;64.20;;;;;;5050825;28;20032;-66
2023/05/06 11:10:52;;;;;;;2.40;0.90;;;22.80;64.30;;;;;;5048829;28;20048;-66
2023/05/06 11:13:24;;;;;;;1.50;0.90;;;22.90;62.30;;;;;;5050529;28;20052;-66
2023/05/06 11:15:51;;;;;;;0.85;0.75;;;22.90;62.40;;;;;;5049803;28;20033;-66
2023/05/06 11:18:30;;;;;;;1.38;0.85;;;22.90;62.30;;;;;;5049903;28;20112;-66
2023/05/06 11:20:59;;;;;;;2.08;1.20;;;23.00;63.50;;;;;;5050287;28;20357;-67
2023/05/06 11:23:53;;;;;;;1.48;1.00;;;23.00;63.50;;;;;;5045901;28;20020;-66
2023/05/06 11:26:18;;;;;;;2.15;1.00;;;23.00;62.80;;;;;;5050476;28;20037;-66
2023/05/06 11:28:46;;;;;;;1.90;1.30;;;23.00;64.10;;;;;;5051302;28;20472;-67
2023/05/06 11:31:13;;;;;;;1.60;1.23;;;22.90;63.10;;;;;;5051778;28;20035;-67
2023/05/06 11:33:45;;;;;;;1.40;1.10;;;22.80;63.60;;;;;;5053314;28;20017;-67
2023/05/06 11:36:16;;;;;;;1.25;0.95;;;22.80;63.00;;;;;;5056320;28;20029;-66
2023/05/06 11:38:45;;;;;;;1.38;0.90;;;22.90;62.50;;;;;;5056586;28;20067;-67
2023/05/06 11:41:11;;;;;;;1.15;1.02;;;22.80;61.90;;;;;;5055272;28;20083;-66
2023/05/06 11:43:37;;;;;;;1.65;1.10;;;22.80;62.80;;;;;;5053896;28;20021;-65
2023/05/06 11:46:03;;;;;;;3.20;1.00;;;22.70;61.10;;;;;;5051872;28;20048;-67
2023/05/06 11:48:29;;;;;;;5.18;1.02;;;22.70;61.10;;;;;;5053776;28;20029;-67
2023/05/06 11:50:55;;;;;;;2.42;1.00;;;22.70;61.80;;;;;;5054760;28;20086;-67
2023/05/06 11:53:22;;;;;;;1.80;1.20;;;22.70;62.00;;;;;;5049728;28;20017;-67
2023/05/06 11:55:52;;;;;;;1.67;1.45;;;22.70;63.20;;;;;;5054615;28;20665;-68
2023/05/06 11:58:24;;;;;;;3.97;1.70;;;22.70;65.80;;;;;;5055123;28;20048;-67
2023/05/06 12:00:53;;;;;;;3.25;2.10;;;22.80;67.90;;;;;;5055299;28;20025;-67
2023/05/06 12:03:19;;;;;;;3.53;1.73;;;22.90;68.30;;;;;;5055675;28;20017;-66
2023/05/06 12:05:47;;;;;;;11.10;1.48;;;23.00;68.20;;;;;;5055316;28;20417;-66
2023/05/06 12:08:14;;;;;;;3.08;1.55;;;23.10;69.00;;;;;;5055453;28;20358;-67
2023/05/06 12:10:40;;;;;;;3.75;1.40;;;23.20;67.20;;;;;;5055458;28;20029;-67
2023/05/06 12:13:06;;;;;;;2.45;1.70;;;23.20;65.90;;;;;;5054697;28;20074;-67
2023/05/06 12:15:36;;;;;;;2.33;1.70;;;23.30;64.80;;;;;;5055628;28;20524;-66
2023/05/06 12:18:02;;;;;;;1.77;1.52;;;23.30;65.40;;;;;;5054962;28;20029;-66
2023/05/06 12:20:28;;;;;;;3.15;1.50;;;23.30;65.90;;;;;;5054847;28;20373;-67
2023/05/06 12:23:09;;;;;;;6.00;1.30;;;23.20;65.20;;;;;;5054387;28;20024;-65
2023/05/06 12:25:34;;;;;;;;;;;23.10;65.60;;;;;;5054926;28;20029;-66
2023/05/06 12:28:00;;;;;;;3.70;1.55;;;23.00;66.20;;;;;;5054695;28;20333;-66
2023/05/06 12:30:33;;;;;;;2.08;1.60;;;22.90;66.00;;;;;;5054665;28;20440;-66
2023/05/06 12:32:59;;;;;;;2.50;1.80;;;22.90;66.20;;;;;;5054488;28;20369;-67
2023/05/06 12:35:31;;;;;;;3.17;1.50;;;22.70;66.60;;;;;;5054830;28;20039;-67
2023/05/06 12:38:05;;;;;;;;;;;22.60;67.90;;;;;;5054902;28;20044;-67
2023/05/06 12:40:31;;;;;;;2.13;1.50;;;22.60;69.20;;;;;;5054391;28;19907;-67
2023/05/06 12:42:57;;;;;;;3.58;1.30;;;22.50;68.90;;;;;;5052455;28;20318;-67
2023/05/06 12:45:23;;;;;;;3.85;1.45;;;22.50;68.80;;;;;;5054418;28;20041;-66
2023/05/06 12:47:56;;;;;;;1.88;1.15;;;22.40;68.20;;;;;;5054612;28;20070;-66